sensor_id;sensor_type;location;lat;lon;timestamp;pressure;altitude;pressure_sealevel;temperature;humidity
13456;BME280;6800;50.940;6.940;2023-08-08T00:03:57;100802.91;;;21.56;49.46
13456;BME280;6800;50.940;6.940;2023-08-08T00:07:58;100804.44;;;21.41;49.89
13456;BME280;6800;50.940;6.940;2023-08-08T00:12:00;100799.19;;;21.49;49.82
13456;BME280;6800;50.940;6.940;2023-08-08T00:16:01;100792.53;;;21.28;50.43
13456;BME280;6800;50.940;6.940;2023-08-08T00:20:04;100793.16;;;21.22;50.22
13456;BME280;6800;50.940;6.940;2023-08-08T00:24:06;100784.56;;;21.28;50.44
13456;BME280;6800;50.940;6.940;2023-08-08T00:28:07;100781.69;;;21.21;50.40
13456;BME280;6800;50.940;6.940;2023-08-08T00:32:08;100781.91;;;21.10;50.30
13456;BME280;6800;50.940;6.940;2023-08-08T00:36:10;100776.59;;;21.10;50.78
13456;BME280;6800;50.940;6.940;2023-08-08T00:40:11;100769.47;;;20.93;51.00
13456;BME280;6800;50.940;6.940;2023-08-08T00:44:13;100769.75;;;20.90;51.06
13456;BME280;6800;50.940;6.940;2023-08-08T00:48:14;100776.13;;;20.79;51.10
13456;BME280;6800;50.940;6.940;2023-08-08T00:52:15;100767.50;;;20.68;51.65
13456;BME280;6800;50.940;6.940;2023-08-08T00:56:17;100769.13;;;20.61;51.92
13456;BME280;6800;50.940;6.940;2023-08-08T01:00:18;100768.81;;;20.64;51.70
13456;BME280;6800;50.940;6.940;2023-08-08T01:04:23;100772.63;;;20.61;51.62
13456;BME280;6800;50.940;6.940;2023-08-08T01:08:34;100764.53;;;20.36;52.81
13456;BME280;6800;50.940;6.940;2023-08-08T01:12:44;100776.84;;;20.54;52.03
13456;BME280;6800;50.940;6.940;2023-08-08T01:16:46;100776.16;;;20.52;52.12
13456;BME280;6800;50.940;6.940;2023-08-08T01:20:48;100773.50;;;20.52;51.78
13456;BME280;6800;50.940;6.940;2023-08-08T01:24:52;100782.59;;;20.50;52.00
13456;BME280;6800;50.940;6.940;2023-08-08T01:28:54;100775.75;;;20.47;52.34
13456;BME280;6800;50.940;6.940;2023-08-08T01:32:56;100774.09;;;20.46;52.08
13456;BME280;6800;50.940;6.940;2023-08-08T01:37:07;100768.00;;;20.63;51.78
13456;BME280;6800;50.940;6.940;2023-08-08T01:41:10;100758.88;;;20.66;52.06
13456;BME280;6800;50.940;6.940;2023-08-08T01:45:12;100758.19;;;20.64;51.91
13456;BME280;6800;50.940;6.940;2023-08-08T01:49:14;100757.38;;;20.63;51.49
13456;BME280;6800;50.940;6.940;2023-08-08T01:53:16;100763.22;;;20.67;51.83
13456;BME280;6800;50.940;6.940;2023-08-08T01:57:17;100758.09;;;20.56;52.01
13456;BME280;6800;50.940;6.940;2023-08-08T02:01:19;100759.88;;;20.65;52.08
13456;BME280;6800;50.940;6.940;2023-08-08T02:05:20;100757.16;;;20.57;52.50
13456;BME280;6800;50.940;6.940;2023-08-08T02:09:22;100761.69;;;20.64;52.43
13456;BME280;6800;50.940;6.940;2023-08-08T02:13:23;100762.72;;;20.54;52.66
13456;BME280;6800;50.940;6.940;2023-08-08T02:17:25;100755.81;;;20.43;52.70
13456;BME280;6800;50.940;6.940;2023-08-08T02:21:27;100754.03;;;20.34;53.05
13456;BME280;6800;50.940;6.940;2023-08-08T02:25:28;100743.44;;;20.34;52.84
13456;BME280;6800;50.940;6.940;2023-08-08T02:29:31;100739.13;;;20.33;53.40
13456;BME280;6800;50.940;6.940;2023-08-08T02:33:33;100729.38;;;20.34;53.01
13456;BME280;6800;50.940;6.940;2023-08-08T02:37:34;100721.16;;;20.27;52.88
13456;BME280;6800;50.940;6.940;2023-08-08T02:41:36;100725.47;;;20.28;52.79
13456;BME280;6800;50.940;6.940;2023-08-08T02:45:37;100718.81;;;20.24;53.27
13456;BME280;6800;50.940;6.940;2023-08-08T02:49:39;100714.22;;;20.16;53.52
13456;BME280;6800;50.940;6.940;2023-08-08T02:53:40;100710.16;;;20.22;53.16
13456;BME280;6800;50.940;6.940;2023-08-08T02:57:41;100698.34;;;20.07;53.23
13456;BME280;6800;50.940;6.940;2023-08-08T03:01:43;100702.63;;;20.17;53.31
13456;BME280;6800;50.940;6.940;2023-08-08T03:05:45;100703.66;;;20.07;53.68
13456;BME280;6800;50.940;6.940;2023-08-08T03:09:47;100716.88;;;20.16;53.06
13456;BME280;6800;50.940;6.940;2023-08-08T03:13:48;100704.25;;;20.01;53.58
13456;BME280;6800;50.940;6.940;2023-08-08T03:17:49;100694.06;;;19.96;53.59
13456;BME280;6800;50.940;6.940;2023-08-08T03:21:51;100694.47;;;20.01;53.52
13456;BME280;6800;50.940;6.940;2023-08-08T03:25:53;100692.84;;;19.91;53.64
13456;BME280;6800;50.940;6.940;2023-08-08T03:29:54;100688.38;;;19.91;53.87
13456;BME280;6800;50.940;6.940;2023-08-08T03:33:55;100692.94;;;19.99;53.50
13456;BME280;6800;50.940;6.940;2023-08-08T03:37:57;100694.13;;;19.87;53.62
13456;BME280;6800;50.940;6.940;2023-08-08T03:42:01;100691.16;;;19.90;53.71
13456;BME280;6800;50.940;6.940;2023-08-08T03:46:03;100690.91;;;19.83;53.88
13456;BME280;6800;50.940;6.940;2023-08-08T03:50:06;100684.22;;;19.89;53.75
13456;BME280;6800;50.940;6.940;2023-08-08T03:54:08;100684.22;;;19.89;53.63
13456;BME280;6800;50.940;6.940;2023-08-08T03:58:09;100677.63;;;19.66;54.22
13456;BME280;6800;50.940;6.940;2023-08-08T04:02:11;100680.56;;;19.90;53.84
13456;BME280;6800;50.940;6.940;2023-08-08T04:06:12;100678.66;;;19.82;54.00
13456;BME280;6800;50.940;6.940;2023-08-08T04:10:13;100689.81;;;19.86;54.11
13456;BME280;6800;50.940;6.940;2023-08-08T04:14:15;100692.59;;;19.84;54.48
13456;BME280;6800;50.940;6.940;2023-08-08T04:18:16;100691.84;;;19.92;54.09
13456;BME280;6800;50.940;6.940;2023-08-08T04:22:18;100687.06;;;19.78;54.50
13456;BME280;6800;50.940;6.940;2023-08-08T04:26:19;100697.22;;;19.82;53.94
13456;BME280;6800;50.940;6.940;2023-08-08T04:30:20;100703.34;;;19.83;54.25
13456;BME280;6800;50.940;6.940;2023-08-08T04:34:22;100703.91;;;19.77;54.87
13456;BME280;6800;50.940;6.940;2023-08-08T04:38:23;100696.53;;;19.80;55.09
13456;BME280;6800;50.940;6.940;2023-08-08T04:42:25;100702.72;;;19.98;54.72
13456;BME280;6800;50.940;6.940;2023-08-08T04:46:26;100702.03;;;19.96;54.52
13456;BME280;6800;50.940;6.940;2023-08-08T04:50:27;100695.63;;;19.89;54.94
13456;BME280;6800;50.940;6.940;2023-08-08T04:54:29;100692.25;;;19.97;55.18
13456;BME280;6800;50.940;6.940;2023-08-08T04:58:31;100701.25;;;20.13;54.95
13456;BME280;6800;50.940;6.940;2023-08-08T05:02:32;100691.75;;;20.11;55.03
13456;BME280;6800;50.940;6.940;2023-08-08T05:06:33;100697.88;;;20.21;55.25
13456;BME280;6800;50.940;6.940;2023-08-08T05:10:35;100697.41;;;20.53;54.35
13456;BME280;6800;50.940;6.940;2023-08-08T05:14:36;100691.19;;;20.44;54.92
13456;BME280;6800;50.940;6.940;2023-08-08T05:18:37;100690.69;;;20.76;54.44
13456;BME280;6800;50.940;6.940;2023-08-08T05:22:39;100682.84;;;20.92;54.14
13456;BME280;6800;50.940;6.940;2023-08-08T05:26:40;100682.00;;;20.91;54.21
13456;BME280;6800;50.940;6.940;2023-08-08T05:30:42;100679.38;;;21.09;54.06
13456;BME280;6800;50.940;6.940;2023-08-08T05:34:43;100677.69;;;21.08;53.59
13456;BME280;6800;50.940;6.940;2023-08-08T05:38:44;100678.06;;;21.64;52.71
13456;BME280;6800;50.940;6.940;2023-08-08T05:42:46;100675.44;;;21.72;52.81
13456;BME280;6800;50.940;6.940;2023-08-08T05:46:47;100670.94;;;21.91;52.27
13456;BME280;6800;50.940;6.940;2023-08-08T05:50:48;100669.84;;;22.09;51.76
13456;BME280;6800;50.940;6.940;2023-08-08T05:54:50;100672.06;;;21.88;52.07
13456;BME280;6800;50.940;6.940;2023-08-08T05:58:51;100682.03;;;22.36;51.51
13456;BME280;6800;50.940;6.940;2023-08-08T06:02:53;100671.81;;;22.81;49.71
13456;BME280;6800;50.940;6.940;2023-08-08T06:06:54;100675.78;;;23.58;48.43
13456;BME280;6800;50.940;6.940;2023-08-08T06:10:56;100681.41;;;23.71;47.77
13456;BME280;6800;50.940;6.940;2023-08-08T06:14:57;100676.75;;;24.12;46.22
13456;BME280;6800;50.940;6.940;2023-08-08T06:18:59;100678.00;;;23.85;46.82
13456;BME280;6800;50.940;6.940;2023-08-08T06:23:00;100685.16;;;24.62;44.72
13456;BME280;6800;50.940;6.940;2023-08-08T06:27:02;100690.31;;;25.09;43.97
13456;BME280;6800;50.940;6.940;2023-08-08T06:31:03;100690.19;;;25.39;42.53
13456;BME280;6800;50.940;6.940;2023-08-08T06:35:05;100691.72;;;25.71;41.73
13456;BME280;6800;50.940;6.940;2023-08-08T06:39:07;100687.38;;;25.70;42.39
13456;BME280;6800;50.940;6.940;2023-08-08T06:43:09;100683.94;;;26.05;41.54
13456;BME280;6800;50.940;6.940;2023-08-08T06:47:11;100696.63;;;26.68;40.14
13456;BME280;6800;50.940;6.940;2023-08-08T06:51:12;100692.19;;;26.75;39.90
13456;BME280;6800;50.940;6.940;2023-08-08T06:55:14;100693.00;;;26.55;39.68
13456;BME280;6800;50.940;6.940;2023-08-08T06:59:15;100691.75;;;27.14;38.67
13456;BME280;6800;50.940;6.940;2023-08-08T07:03:18;100692.63;;;27.00;39.19
13456;BME280;6800;50.940;6.940;2023-08-08T07:07:19;100686.00;;;26.96;39.31
13456;BME280;6800;50.940;6.940;2023-08-08T07:11:21;100683.13;;;27.25;38.69
13456;BME280;6800;50.940;6.940;2023-08-08T07:15:23;100679.22;;;27.49;38.21
13456;BME280;6800;50.940;6.940;2023-08-08T07:19:25;100684.16;;;26.75;39.76
13456;BME280;6800;50.940;6.940;2023-08-08T07:23:26;100671.06;;;26.30;40.19
13456;BME280;6800;50.940;6.940;2023-08-08T07:27:28;100681.75;;;25.65;41.57
13456;BME280;6800;50.940;6.940;2023-08-08T07:31:29;100673.22;;;26.05;40.88
13456;BME280;6800;50.940;6.940;2023-08-08T07:35:30;100685.63;;;25.48;41.58
13456;BME280;6800;50.940;6.940;2023-08-08T07:39:32;100681.06;;;26.07;41.09
13456;BME280;6800;50.940;6.940;2023-08-08T07:43:33;100683.88;;;25.70;41.54
13456;BME280;6800;50.940;6.940;2023-08-08T07:47:35;100681.34;;;26.26;40.95
13456;BME280;6800;50.940;6.940;2023-08-08T07:51:36;100683.41;;;26.46;40.36
13456;BME280;6800;50.940;6.940;2023-08-08T07:55:38;100666.53;;;27.64;37.96
13456;BME280;6800;50.940;6.940;2023-08-08T07:59:39;100671.66;;;26.82;39.52
13456;BME280;6800;50.940;6.940;2023-08-08T08:03:40;100670.44;;;27.06;39.21
13456;BME280;6800;50.940;6.940;2023-08-08T08:07:43;100670.19;;;26.80;39.98
13456;BME280;6800;50.940;6.940;2023-08-08T08:11:49;100677.34;;;27.22;39.06
13456;BME280;6800;50.940;6.940;2023-08-08T08:15:50;100671.72;;;26.89;39.57
13456;BME280;6800;50.940;6.940;2023-08-08T08:19:52;100673.88;;;27.28;39.02
13456;BME280;6800;50.940;6.940;2023-08-08T08:23:53;100671.84;;;27.30;38.79
13456;BME280;6800;50.940;6.940;2023-08-08T08:27:54;100672.72;;;27.09;38.89
13456;BME280;6800;50.940;6.940;2023-08-08T08:31:56;100680.78;;;26.88;39.53
13456;BME280;6800;50.940;6.940;2023-08-08T08:35:57;100664.41;;;25.90;40.90
13456;BME280;6800;50.940;6.940;2023-08-08T08:40:02;100671.16;;;25.20;43.16
13456;BME280;6800;50.940;6.940;2023-08-08T08:44:08;100674.75;;;25.12;42.66
13456;BME280;6800;50.940;6.940;2023-08-08T08:48:10;100672.66;;;25.37;42.10
13456;BME280;6800;50.940;6.940;2023-08-08T08:52:18;100673.09;;;24.66;43.47
13456;BME280;6800;50.940;6.940;2023-08-08T08:56:20;100675.84;;;24.81;42.86
13456;BME280;6800;50.940;6.940;2023-08-08T09:00:24;100675.47;;;24.61;42.71
13456;BME280;6800;50.940;6.940;2023-08-08T09:04:28;100676.09;;;24.94;42.24
13456;BME280;6800;50.940;6.940;2023-08-08T09:08:30;100669.63;;;25.40;41.65
13456;BME280;6800;50.940;6.940;2023-08-08T09:12:33;100667.63;;;25.71;40.69
13456;BME280;6800;50.940;6.940;2023-08-08T09:16:35;100669.56;;;25.92;40.73
13456;BME280;6800;50.940;6.940;2023-08-08T09:20:36;100675.66;;;25.71;40.51
13456;BME280;6800;50.940;6.940;2023-08-08T09:24:39;100666.78;;;25.85;40.34
13456;BME280;6800;50.940;6.940;2023-08-08T09:28:41;100662.00;;;25.95;40.38
13456;BME280;6800;50.940;6.940;2023-08-08T09:32:43;100661.06;;;26.17;39.18
13456;BME280;6800;50.940;6.940;2023-08-08T09:36:46;100656.16;;;26.06;39.66
13456;BME280;6800;50.940;6.940;2023-08-08T09:40:49;100663.06;;;26.51;38.50
13456;BME280;6800;50.940;6.940;2023-08-08T09:44:51;100667.53;;;26.80;38.07
13456;BME280;6800;50.940;6.940;2023-08-08T09:48:53;100667.25;;;26.75;38.15
13456;BME280;6800;50.940;6.940;2023-08-08T09:52:55;100671.09;;;26.87;38.15
13456;BME280;6800;50.940;6.940;2023-08-08T09:56:58;100667.72;;;26.78;37.72
13456;BME280;6800;50.940;6.940;2023-08-08T10:01:00;100667.63;;;26.51;37.84
13456;BME280;6800;50.940;6.940;2023-08-08T10:05:05;100668.06;;;26.96;36.68
13456;BME280;6800;50.940;6.940;2023-08-08T10:09:06;100665.47;;;25.96;39.10
13456;BME280;6800;50.940;6.940;2023-08-08T10:13:09;100671.59;;;25.75;39.66
13456;BME280;6800;50.940;6.940;2023-08-08T10:17:15;100670.31;;;26.93;37.57
13456;BME280;6800;50.940;6.940;2023-08-08T10:21:17;100671.81;;;27.51;35.85
13456;BME280;6800;50.940;6.940;2023-08-08T10:25:26;100665.94;;;27.68;34.38
13456;BME280;6800;50.940;6.940;2023-08-08T10:29:30;100664.03;;;27.97;33.91
13456;BME280;6800;50.940;6.940;2023-08-08T10:33:42;100669.28;;;28.18;33.07
13456;BME280;6800;50.940;6.940;2023-08-08T10:37:54;100679.63;;;29.20;32.26
13456;BME280;6800;50.940;6.940;2023-08-08T10:42:00;100655.75;;;29.57;31.75
13456;BME280;6800;50.940;6.940;2023-08-08T10:46:04;100659.66;;;28.43;33.63
13456;BME280;6800;50.940;6.940;2023-08-08T10:50:16;100657.59;;;28.51;33.21
13456;BME280;6800;50.940;6.940;2023-08-08T10:54:24;100652.28;;;28.04;33.63
13456;BME280;6800;50.940;6.940;2023-08-08T10:58:46;100661.03;;;27.44;34.50
13456;BME280;6800;50.940;6.940;2023-08-08T11:02:49;100660.19;;;27.37;34.62
13456;BME280;6800;50.940;6.940;2023-08-08T11:06:55;100651.69;;;27.68;34.11
13456;BME280;6800;50.940;6.940;2023-08-08T11:10:57;100660.91;;;27.52;35.11
13456;BME280;6800;50.940;6.940;2023-08-08T11:14:58;100654.19;;;27.69;34.74
13456;BME280;6800;50.940;6.940;2023-08-08T11:19:00;100656.28;;;27.40;35.24
13456;BME280;6800;50.940;6.940;2023-08-08T11:23:01;100658.41;;;27.92;34.58
13456;BME280;6800;50.940;6.940;2023-08-08T11:27:05;100664.66;;;27.99;34.52
13456;BME280;6800;50.940;6.940;2023-08-08T11:31:06;100653.13;;;29.04;32.13
13456;BME280;6800;50.940;6.940;2023-08-08T11:35:09;100641.75;;;28.57;33.44
13456;BME280;6800;50.940;6.940;2023-08-08T11:39:10;100645.66;;;28.61;32.87
13456;BME280;6800;50.940;6.940;2023-08-08T11:43:12;100642.16;;;28.99;32.44
13456;BME280;6800;50.940;6.940;2023-08-08T11:47:15;100636.25;;;28.24;32.69
13456;BME280;6800;50.940;6.940;2023-08-08T11:51:16;100638.94;;;28.24;32.85
13456;BME280;6800;50.940;6.940;2023-08-08T11:55:21;100640.50;;;27.30;33.57
13456;BME280;6800;50.940;6.940;2023-08-08T11:59:23;100641.84;;;26.71;34.88
13456;BME280;6800;50.940;6.940;2023-08-08T12:03:26;100626.47;;;26.58;35.28
13456;BME280;6800;50.940;6.940;2023-08-08T12:07:27;100638.53;;;26.90;35.35
13456;BME280;6800;50.940;6.940;2023-08-08T12:11:28;100628.06;;;26.95;35.01
13456;BME280;6800;50.940;6.940;2023-08-08T12:15:34;100630.13;;;26.72;34.49
13456;BME280;6800;50.940;6.940;2023-08-08T12:19:36;100624.13;;;27.46;33.42
13456;BME280;6800;50.940;6.940;2023-08-08T12:23:37;100607.94;;;27.67;33.07
13456;BME280;6800;50.940;6.940;2023-08-08T12:27:39;100617.84;;;27.05;33.09
13456;BME280;6800;50.940;6.940;2023-08-08T12:31:40;100630.13;;;26.72;33.84
13456;BME280;6800;50.940;6.940;2023-08-08T12:35:42;100628.94;;;27.02;34.11
13456;BME280;6800;50.940;6.940;2023-08-08T12:39:43;100633.03;;;26.56;34.55
13456;BME280;6800;50.940;6.940;2023-08-08T12:43:45;100628.00;;;27.37;34.20
13456;BME280;6800;50.940;6.940;2023-08-08T12:47:47;100639.97;;;27.14;34.31
13456;BME280;6800;50.940;6.940;2023-08-08T12:51:50;100649.84;;;26.85;35.26
13456;BME280;6800;50.940;6.940;2023-08-08T12:55:51;100635.72;;;26.35;36.44
13456;BME280;6800;50.940;6.940;2023-08-08T12:59:52;100630.59;;;26.18;36.29
13456;BME280;6800;50.940;6.940;2023-08-08T13:03:54;100642.47;;;26.52;34.85
13456;BME280;6800;50.940;6.940;2023-08-08T13:08:15;100638.84;;;25.88;40.05
13456;BME280;6800;50.940;6.940;2023-08-08T13:12:16;100657.38;;;26.04;41.09
13456;BME280;6800;50.940;6.940;2023-08-08T13:16:18;100656.97;;;26.07;41.20
13456;BME280;6800;50.940;6.940;2023-08-08T13:20:19;100647.75;;;25.22;40.64
13456;BME280;6800;50.940;6.940;2023-08-08T13:24:21;100642.53;;;25.87;39.06
13456;BME280;6800;50.940;6.940;2023-08-08T13:28:24;100633.59;;;26.30;39.53
13456;BME280;6800;50.940;6.940;2023-08-08T13:32:25;100639.03;;;26.37;38.04
13456;BME280;6800;50.940;6.940;2023-08-08T13:36:27;100637.75;;;26.33;36.43
13456;BME280;6800;50.940;6.940;2023-08-08T13:40:28;100644.09;;;26.67;35.76
13456;BME280;6800;50.940;6.940;2023-08-08T13:44:29;100639.41;;;25.98;36.30
13456;BME280;6800;50.940;6.940;2023-08-08T13:48:32;100632.16;;;26.49;35.75
13456;BME280;6800;50.940;6.940;2023-08-08T13:52:33;100639.56;;;26.68;35.42
13456;BME280;6800;50.940;6.940;2023-08-08T13:56:35;100635.00;;;26.68;35.46
13456;BME280;6800;50.940;6.940;2023-08-08T14:00:36;100643.38;;;27.01;35.68
13456;BME280;6800;50.940;6.940;2023-08-08T14:04:37;100635.66;;;26.70;37.35
13456;BME280;6800;50.940;6.940;2023-08-08T14:08:39;100640.28;;;26.41;37.13
13456;BME280;6800;50.940;6.940;2023-08-08T14:12:40;100639.81;;;26.94;36.23
13456;BME280;6800;50.940;6.940;2023-08-08T14:16:42;100635.53;;;27.27;35.95
13456;BME280;6800;50.940;6.940;2023-08-08T14:20:44;100637.38;;;27.27;36.27
13456;BME280;6800;50.940;6.940;2023-08-08T14:24:45;100637.19;;;27.00;36.66
13456;BME280;6800;50.940;6.940;2023-08-08T14:28:47;100630.59;;;27.03;36.15
13456;BME280;6800;50.940;6.940;2023-08-08T14:32:48;100632.09;;;26.63;36.54
13456;BME280;6800;50.940;6.940;2023-08-08T14:36:49;100639.59;;;26.95;35.79
13456;BME280;6800;50.940;6.940;2023-08-08T14:40:51;100627.03;;;27.24;35.01
13456;BME280;6800;50.940;6.940;2023-08-08T14:44:54;100641.00;;;26.70;35.79
13456;BME280;6800;50.940;6.940;2023-08-08T14:48:55;100652.66;;;26.77;35.58
13456;BME280;6800;50.940;6.940;2023-08-08T14:52:58;100643.22;;;27.09;35.14
13456;BME280;6800;50.940;6.940;2023-08-08T14:56:59;100654.53;;;26.41;36.74
13456;BME280;6800;50.940;6.940;2023-08-08T15:01:03;100641.19;;;27.11;35.73
13456;BME280;6800;50.940;6.940;2023-08-08T15:05:04;100636.53;;;27.26;35.19
13456;BME280;6800;50.940;6.940;2023-08-08T15:09:06;100655.53;;;27.25;35.66
13456;BME280;6800;50.940;6.940;2023-08-08T15:13:07;100647.69;;;27.57;35.15
13456;BME280;6800;50.940;6.940;2023-08-08T15:17:09;100653.78;;;27.72;34.44
13456;BME280;6800;50.940;6.940;2023-08-08T15:21:10;100638.09;;;27.69;34.17
13456;BME280;6800;50.940;6.940;2023-08-08T15:25:12;100635.75;;;27.60;34.79
13456;BME280;6800;50.940;6.940;2023-08-08T15:29:13;100638.75;;;27.78;35.00
13456;BME280;6800;50.940;6.940;2023-08-08T15:33:14;100628.22;;;27.83;35.22
13456;BME280;6800;50.940;6.940;2023-08-08T15:37:16;100628.47;;;27.88;34.57
13456;BME280;6800;50.940;6.940;2023-08-08T15:41:17;100626.09;;;27.65;34.96
13456;BME280;6800;50.940;6.940;2023-08-08T15:45:19;100619.41;;;27.48;36.45
13456;BME280;6800;50.940;6.940;2023-08-08T15:49:20;100610.44;;;27.75;35.60
13456;BME280;6800;50.940;6.940;2023-08-08T15:53:21;100626.94;;;27.38;35.65
13456;BME280;6800;50.940;6.940;2023-08-08T15:57:24;100613.25;;;27.54;34.99
13456;BME280;6800;50.940;6.940;2023-08-08T16:01:25;100620.16;;;27.36;35.47
13456;BME280;6800;50.940;6.940;2023-08-08T16:05:26;100625.19;;;27.24;35.48
13456;BME280;6800;50.940;6.940;2023-08-08T16:09:29;100625.50;;;27.08;36.60
13456;BME280;6800;50.940;6.940;2023-08-08T16:13:31;100626.56;;;27.41;36.38
13456;BME280;6800;50.940;6.940;2023-08-08T16:17:32;100631.97;;;27.89;36.34
13456;BME280;6800;50.940;6.940;2023-08-08T16:21:34;100630.97;;;27.55;37.41
13456;BME280;6800;50.940;6.940;2023-08-08T16:25:35;100640.38;;;27.38;37.44
13456;BME280;6800;50.940;6.940;2023-08-08T16:29:37;100633.03;;;27.53;37.13
13456;BME280;6800;50.940;6.940;2023-08-08T16:33:39;100636.91;;;27.23;37.75
13456;BME280;6800;50.940;6.940;2023-08-08T16:37:40;100643.25;;;27.37;37.45
13456;BME280;6800;50.940;6.940;2023-08-08T16:41:41;100645.84;;;27.02;37.68
13456;BME280;6800;50.940;6.940;2023-08-08T16:45:43;100643.16;;;27.30;38.03
13456;BME280;6800;50.940;6.940;2023-08-08T16:49:45;100644.97;;;27.23;38.26
13456;BME280;6800;50.940;6.940;2023-08-08T16:53:47;100642.59;;;27.07;38.64
13456;BME280;6800;50.940;6.940;2023-08-08T16:57:48;100656.41;;;26.83;38.65
13456;BME280;6800;50.940;6.940;2023-08-08T17:01:51;100652.69;;;26.63;39.33
13456;BME280;6800;50.940;6.940;2023-08-08T17:05:52;100641.66;;;26.72;38.79
13456;BME280;6800;50.940;6.940;2023-08-08T17:09:54;100645.94;;;26.46;39.57
13456;BME280;6800;50.940;6.940;2023-08-08T17:13:55;100641.50;;;26.74;38.74
13456;BME280;6800;50.940;6.940;2023-08-08T17:17:57;100639.88;;;26.79;38.87
13456;BME280;6800;50.940;6.940;2023-08-08T17:21:58;100642.97;;;26.62;39.07
13456;BME280;6800;50.940;6.940;2023-08-08T17:26:00;100627.03;;;26.54;39.03
13456;BME280;6800;50.940;6.940;2023-08-08T17:30:02;100626.13;;;26.82;39.10
13456;BME280;6800;50.940;6.940;2023-08-08T17:34:05;100617.38;;;26.53;39.26
13456;BME280;6800;50.940;6.940;2023-08-08T17:38:07;100626.28;;;26.39;39.66
13456;BME280;6800;50.940;6.940;2023-08-08T17:42:08;100624.13;;;26.70;38.86
13456;BME280;6800;50.940;6.940;2023-08-08T17:46:10;100614.56;;;26.61;39.45
13456;BME280;6800;50.940;6.940;2023-08-08T17:50:11;100616.84;;;26.43;39.70
13456;BME280;6800;50.940;6.940;2023-08-08T17:54:13;100602.44;;;26.44;39.28
13456;BME280;6800;50.940;6.940;2023-08-08T17:58:14;100604.47;;;26.42;39.36
13456;BME280;6800;50.940;6.940;2023-08-08T18:02:16;100600.25;;;26.33;39.39
13456;BME280;6800;50.940;6.940;2023-08-08T18:06:18;100601.94;;;26.34;39.68
13456;BME280;6800;50.940;6.940;2023-08-08T18:10:19;100601.28;;;26.10;39.58
13456;BME280;6800;50.940;6.940;2023-08-08T18:14:21;100601.78;;;26.20;39.75
13456;BME280;6800;50.940;6.940;2023-08-08T18:18:22;100610.34;;;26.30;39.67
13456;BME280;6800;50.940;6.940;2023-08-08T18:22:27;100615.56;;;26.03;39.90
13456;BME280;6800;50.940;6.940;2023-08-08T18:26:29;100617.09;;;25.76;40.05
13456;BME280;6800;50.940;6.940;2023-08-08T18:30:30;100607.50;;;25.67;40.01
13456;BME280;6800;50.940;6.940;2023-08-08T18:34:32;100615.53;;;25.67;40.05
13456;BME280;6800;50.940;6.940;2023-08-08T18:38:33;100612.41;;;25.49;40.30
13456;BME280;6800;50.940;6.940;2023-08-08T18:42:35;100608.03;;;25.77;40.43
13456;BME280;6800;50.940;6.940;2023-08-08T18:46:36;100604.66;;;25.54;41.11
13456;BME280;6800;50.940;6.940;2023-08-08T18:50:38;100610.63;;;25.71;41.17
13456;BME280;6800;50.940;6.940;2023-08-08T18:54:39;100611.47;;;25.57;41.80
13456;BME280;6800;50.940;6.940;2023-08-08T18:58:41;100610.38;;;25.51;42.47
13456;BME280;6800;50.940;6.940;2023-08-08T19:02:42;100622.59;;;25.31;42.91
13456;BME280;6800;50.940;6.940;2023-08-08T19:06:44;100626.00;;;25.25;42.85
13456;BME280;6800;50.940;6.940;2023-08-08T19:10:45;100622.50;;;25.10;43.33
13456;BME280;6800;50.940;6.940;2023-08-08T19:14:46;100611.56;;;25.19;43.12
13456;BME280;6800;50.940;6.940;2023-08-08T19:18:48;100611.56;;;25.34;43.28
13456;BME280;6800;50.940;6.940;2023-08-08T19:22:49;100605.91;;;25.00;43.69
13456;BME280;6800;50.940;6.940;2023-08-08T19:26:51;100612.84;;;24.86;43.88
13456;BME280;6800;50.940;6.940;2023-08-08T19:30:52;100618.84;;;24.65;44.55
13456;BME280;6800;50.940;6.940;2023-08-08T19:34:54;100616.34;;;24.41;45.10
13456;BME280;6800;50.940;6.940;2023-08-08T19:38:55;100629.88;;;24.40;46.02
13456;BME280;6800;50.940;6.940;2023-08-08T19:42:57;100621.34;;;24.44;46.28
13456;BME280;6800;50.940;6.940;2023-08-08T19:46:59;100627.47;;;24.30;46.61
13456;BME280;6800;50.940;6.940;2023-08-08T19:51:01;100629.50;;;24.20;47.99
13456;BME280;6800;50.940;6.940;2023-08-08T19:55:02;100634.31;;;23.94;49.58
13456;BME280;6800;50.940;6.940;2023-08-08T19:59:04;100635.41;;;23.69;51.56
13456;BME280;6800;50.940;6.940;2023-08-08T20:03:06;100641.53;;;23.77;52.35
13456;BME280;6800;50.940;6.940;2023-08-08T20:07:08;100629.69;;;23.80;53.22
13456;BME280;6800;50.940;6.940;2023-08-08T20:11:09;100623.97;;;23.60;53.62
13456;BME280;6800;50.940;6.940;2023-08-08T20:15:12;100625.59;;;23.61;54.13
13456;BME280;6800;50.940;6.940;2023-08-08T20:19:13;100617.34;;;23.40;53.67
13456;BME280;6800;50.940;6.940;2023-08-08T20:23:14;100611.84;;;23.50;54.33
13456;BME280;6800;50.940;6.940;2023-08-08T20:27:25;100609.81;;;23.44;54.64
13456;BME280;6800;50.940;6.940;2023-08-08T20:31:35;100609.69;;;23.37;54.57
13456;BME280;6800;50.940;6.940;2023-08-08T20:35:37;100623.53;;;23.16;55.98
13456;BME280;6800;50.940;6.940;2023-08-08T20:39:39;100619.50;;;23.28;56.34
13456;BME280;6800;50.940;6.940;2023-08-08T20:43:41;100617.00;;;23.27;55.76
13456;BME280;6800;50.940;6.940;2023-08-08T20:47:43;100624.34;;;23.25;56.39
13456;BME280;6800;50.940;6.940;2023-08-08T20:51:44;100624.19;;;23.35;56.35
13456;BME280;6800;50.940;6.940;2023-08-08T20:55:46;100634.38;;;23.07;58.65
13456;BME280;6800;50.940;6.940;2023-08-08T20:59:47;100631.72;;;22.83;58.91
13456;BME280;6800;50.940;6.940;2023-08-08T21:03:49;100629.56;;;22.78;60.60
13456;BME280;6800;50.940;6.940;2023-08-08T21:07:50;100608.91;;;22.80;59.95
13456;BME280;6800;50.940;6.940;2023-08-08T21:11:52;100598.28;;;22.72;60.38
13456;BME280;6800;50.940;6.940;2023-08-08T21:15:53;100587.94;;;22.37;61.72
13456;BME280;6800;50.940;6.940;2023-08-08T21:19:55;100580.09;;;22.35;62.10
13456;BME280;6800;50.940;6.940;2023-08-08T21:23:57;100569.63;;;22.42;62.20